Time;durP1;ratioP1;P1;durP2;ratioP2;P2;SDS_P1;SDS_P2;PMS_P1;PMS_P2;Temp;Humidity;BMP_temperature;BMP_pressure;BME280_temperature;BME280_humidity;BME280_pressure;Samples;Min_cycle;Max_cycle;Signal;HPM_P1;HPM_P2
2022/10/20 00:01:51;;;;;;;12.23;8.80;;;;;;;6.86;87.22;100879.31;5001759;28;20515;-82
2022/10/20 00:04:18;;;;;;;11.03;8.90;;;;;;;6.82;87.27;100872.47;5002824;28;20470;-81
2022/10/20 00:06:45;;;;;;;14.13;9.47;;;;;;;6.85;86.80;100868.78;5001073;28;20500;-81
2022/10/20 00:09:13;;;;;;;12.30;9.93;;;;;;;6.86;87.23;100873.16;5002114;28;20531;-80
2022/10/20 00:11:39;;;;;;;14.20;11.00;;;;;;;6.89;87.27;100870.28;5003315;28;20520;-81
2022/10/20 00:14:06;;;;;;;12.73;9.87;;;;;;;6.85;87.20;100863.47;5012497;28;20490;-81
2022/10/20 00:16:36;;;;;;;11.90;10.30;;;;;;;6.87;86.70;100861.56;5009092;28;20572;-81
2022/10/20 00:19:03;;;;;;;12.70;10.10;;;;;;;6.82;87.17;100855.69;5018107;28;20537;-81
2022/10/20 00:21:30;;;;;;;12.33;10.90;;;;;;;6.80;86.91;100855.78;5020425;28;20483;-81
2022/10/20 00:23:59;;;;;;;14.70;9.97;;;;;;;6.81;87.27;100854.00;5022674;28;20459;-81
2022/10/20 00:26:28;;;;;;;11.47;10.27;;;;;;;6.82;87.14;100837.09;5021219;28;20482;-81
2022/10/20 00:28:55;;;;;;;15.03;11.30;;;;;;;6.80;87.20;100837.19;5004039;28;20496;-81
2022/10/20 00:31:23;;;;;;;16.13;11.33;;;;;;;6.87;86.91;100834.97;5005306;28;20491;-81
2022/10/20 00:33:49;;;;;;;13.87;12.23;;;;;;;6.83;87.07;100838.81;5015877;28;20466;-80
2022/10/20 00:36:18;;;;;;;14.57;11.77;;;;;;;6.82;86.77;100842.41;5011032;28;20513;-80
2022/10/20 00:38:44;;;;;;;13.07;11.00;;;;;;;6.87;86.91;100840.28;5027345;28;20508;-81
2022/10/20 00:41:12;;;;;;;12.97;10.53;;;;;;;6.82;86.79;100839.75;5023653;28;21153;-80
2022/10/20 00:43:47;;;;;;;13.33;10.80;;;;;;;6.88;86.85;100836.69;5010756;28;20458;-81
2022/10/20 00:46:16;;;;;;;14.93;12.20;;;;;;;6.90;86.65;100845.41;5005455;28;20498;-81
2022/10/20 00:48:47;;;;;;;13.43;12.03;;;;;;;6.85;86.61;100832.41;5007224;28;20515;-81
2022/10/20 00:51:15;;;;;;;15.20;11.40;;;;;;;6.91;86.56;100831.16;5007990;28;20494;-80
2022/10/20 00:53:42;;;;;;;15.30;11.90;;;;;;;6.82;86.29;100824.66;5026593;28;20458;-79
2022/10/20 00:56:09;;;;;;;17.47;12.83;;;;;;;6.91;86.67;100818.72;5021170;28;20472;-81
2022/10/20 00:58:36;;;;;;;15.33;12.07;;;;;;;6.94;86.24;100812.34;5005764;28;20451;-80
2022/10/20 01:01:04;;;;;;;13.27;11.13;;;;;;;6.97;85.84;100805.00;5004789;28;20551;-80
2022/10/20 01:03:35;;;;;;;13.90;12.03;;;;;;;6.94;85.85;100802.59;5022778;28;20469;-80
2022/10/20 01:06:02;;;;;;;14.10;12.70;;;;;;;6.89;86.00;100803.81;5003897;28;20864;-80
2022/10/20 01:08:28;;;;;;;17.97;12.47;;;;;;;6.95;85.85;100792.78;5004641;28;20519;-79
2022/10/20 01:11:04;;;;;;;16.53;13.37;;;;;;;6.89;86.11;100796.72;5004319;28;20495;-79
2022/10/20 01:13:39;;;;;;;15.90;13.50;;;;;;;6.93;86.13;100784.91;5004634;28;20478;-80
2022/10/20 01:16:13;;;;;;;14.93;12.00;;;;;;;6.97;85.64;100778.44;5003642;28;20903;-79
2022/10/20 01:18:45;;;;;;;15.73;12.63;;;;;;;6.93;85.89;100782.25;5009123;28;20482;-79
2022/10/20 01:21:23;;;;;;;18.03;13.10;;;;;;;6.93;85.92;100782.25;5020571;28;20566;-79
2022/10/20 01:24:05;;;;;;;14.00;12.30;;;;;;;6.84;86.13;100769.59;4985111;28;20464;-80
2022/10/20 01:27:32;;;;;;;16.00;11.83;;;;;;;6.82;86.09;100768.84;4987179;28;20578;-80
2022/10/20 01:30:07;;;;;;;15.70;12.53;;;;;;;6.83;86.25;100761.72;4995806;28;20538;-80
2022/10/20 01:32:40;;;;;;;15.17;12.87;;;;;;;6.88;86.03;100767.59;4984387;28;20488;-80
2022/10/20 01:35:10;;;;;;;14.07;12.67;;;;;;;6.91;85.98;100759.38;5000903;28;20514;-79
2022/10/20 01:37:44;;;;;;;15.93;12.77;;;;;;;6.82;86.25;100760.00;5010303;28;20493;-80
2022/10/20 01:40:15;;;;;;;23.37;13.50;;;;;;;6.78;86.35;100759.38;5012461;28;20490;-80
2022/10/20 01:42:42;;;;;;;15.47;13.00;;;;;;;6.83;86.44;100743.97;5023917;28;20872;-80
2022/10/20 01:45:10;;;;;;;14.30;12.87;;;;;;;6.86;86.23;100748.25;5013654;28;20480;-80
2022/10/20 01:47:37;;;;;;;16.30;12.23;;;;;;;6.89;85.82;100740.91;5003713;28;20536;-80
2022/10/20 01:50:06;;;;;;;14.40;12.27;;;;;;;6.76;86.01;100727.59;5012223;28;20583;-79
2022/10/20 01:52:32;;;;;;;17.00;13.20;;;;;;;6.86;86.11;100721.66;5022772;28;20471;-80
2022/10/20 01:54:59;;;;;;;16.37;11.90;;;;;;;6.77;86.00;100709.81;5016942;28;20472;-80
2022/10/20 01:57:35;;;;;;;14.10;12.10;;;;;;;6.73;86.30;100711.84;5003056;28;20504;-81
2022/10/20 02:00:07;;;;;;;15.93;12.87;;;;;;;6.76;85.99;100708.16;5000149;28;20509;-80
2022/10/20 02:02:48;;;;;;;14.87;12.90;;;;;;;6.84;85.96;100700.50;5000760;28;20487;-80
2022/10/20 02:05:25;;;;;;;19.13;14.13;;;;;;;6.73;85.88;100698.56;5008458;28;20466;-80
2022/10/20 02:07:53;;;;;;;13.33;11.93;;;;;;;6.89;86.02;100706.34;5002564;28;21041;-80
2022/10/20 02:10:22;;;;;;;14.87;13.13;;;;;;;6.74;86.11;100702.09;5002383;28;20991;-80
2022/10/20 02:12:52;;;;;;;19.00;14.17;;;;;;;6.80;86.07;100691.03;5003710;28;20548;-80
2022/10/20 02:15:22;;;;;;;14.60;12.70;;;;;;;6.87;85.72;100686.97;5009033;28;20881;-80
2022/10/20 02:17:53;;;;;;;19.67;14.40;;;;;;;6.73;85.85;100682.63;5008847;28;20452;-81
2022/10/20 02:20:20;;;;;;;17.17;13.93;;;;;;;6.73;85.95;100679.13;4998740;28;20524;-79
2022/10/20 02:22:47;;;;;;;16.43;13.83;;;;;;;6.84;85.75;100689.00;5002872;28;20479;-80
2022/10/20 02:25:14;;;;;;;20.63;12.57;;;;;;;6.82;85.83;100682.94;5004379;28;20544;-80
2022/10/20 02:27:43;;;;;;;16.37;13.80;;;;;;;6.80;85.92;100677.72;5003943;28;21045;-80
2022/10/20 02:30:12;;;;;;;16.40;12.20;;;;;;;6.76;85.83;100678.91;5003348;28;20941;-80
2022/10/20 02:32:40;;;;;;;15.87;13.93;;;;;;;6.76;85.79;100682.41;5000065;28;20523;-80
2022/10/20 02:35:13;;;;;;;15.03;12.83;;;;;;;6.83;85.69;100695.28;5000090;28;20992;-80
2022/10/20 02:37:39;;;;;;;14.23;12.73;;;;;;;6.77;86.05;100685.91;5001903;28;20471;-80
2022/10/20 02:40:07;;;;;;;19.73;13.30;;;;;;;6.74;85.78;100681.66;5002792;28;20516;-78
2022/10/20 02:42:34;;;;;;;13.83;12.53;;;;;;;6.72;86.01;100678.28;5003079;28;20479;-80
2022/10/20 02:45:01;;;;;;;18.33;13.13;;;;;;;6.75;85.89;100677.19;5003541;28;20783;-79
2022/10/20 02:47:27;;;;;;;15.53;13.93;;;;;;;6.69;86.07;100667.84;5001995;28;20480;-80
2022/10/20 02:49:54;;;;;;;14.80;13.20;;;;;;;6.70;86.02;100666.91;5018940;28;20523;-80
2022/10/20 02:52:22;;;;;;;17.97;14.10;;;;;;;6.69;85.99;100673.16;5020361;28;20482;-80
2022/10/20 02:54:49;;;;;;;14.80;13.20;;;;;;;6.77;86.38;100678.81;5020715;28;20466;-80
2022/10/20 02:57:15;;;;;;;18.77;13.03;;;;;;;6.72;86.14;100672.13;5021265;28;20542;-80
2022/10/20 02:59:42;;;;;;;16.37;12.67;;;;;;;6.64;86.01;100669.97;5020417;28;20463;-80
2022/10/20 03:02:08;;;;;;;17.17;12.97;;;;;;;6.69;86.04;100673.16;5021718;28;20529;-79
2022/10/20 03:04:35;;;;;;;14.33;12.73;;;;;;;6.60;86.56;100681.78;5016624;28;20494;-80
2022/10/20 03:07:01;;;;;;;15.40;13.13;;;;;;;6.67;86.58;100667.09;5020961;28;20558;-80
2022/10/20 03:09:29;;;;;;;16.83;13.87;;;;;;;6.67;86.32;100668.94;5010841;28;20512;-81
2022/10/20 03:11:56;;;;;;;15.43;12.63;;;;;;;6.52;86.69;100660.19;5001978;28;20873;-81
2022/10/20 03:14:23;;;;;;;15.67;13.90;;;;;;;6.47;87.23;100657.84;5015491;28;20933;-81
2022/10/20 03:16:49;;;;;;;15.60;12.97;;;;;;;6.53;87.19;100649.47;5020697;28;20539;-82
2022/10/20 03:19:16;;;;;;;15.50;12.03;;;;;;;6.50;87.04;100648.81;5009922;28;20539;-81
2022/10/20 03:21:42;;;;;;;14.70;13.10;;;;;;;6.46;87.31;100650.84;5001371;28;21035;-81
2022/10/20 03:24:09;;;;;;;15.80;12.30;;;;;;;6.50;87.36;100639.03;5002407;28;20938;-80
2022/10/20 03:26:37;;;;;;;16.90;13.10;;;;;;;6.48;87.42;100626.81;5002812;28;20741;-81
2022/10/20 03:29:04;;;;;;;18.03;13.30;;;;;;;6.45;87.74;100611.09;5009186;28;20579;-82
2022/10/20 03:31:30;;;;;;;16.87;12.83;;;;;;;6.47;87.90;100602.06;5001813;28;20571;-82
2022/10/20 03:33:57;;;;;;;14.60;13.10;;;;;;;6.48;87.55;100598.44;5002516;28;20847;-80
2022/10/20 03:36:24;;;;;;;15.90;13.77;;;;;;;6.49;87.91;100596.63;5001422;28;20543;-81
2022/10/20 03:38:50;;;;;;;18.07;13.80;;;;;;;6.44;87.66;100607.59;5002368;28;20923;-80
2022/10/20 03:41:17;;;;;;;19.67;14.67;;;;;;;6.45;87.85;100589.84;5018490;28;20561;-80
2022/10/20 03:43:45;;;;;;;15.50;12.37;;;;;;;6.49;87.54;100600.16;5021980;28;20947;-80
2022/10/20 03:46:12;;;;;;;17.23;13.10;;;;;;;6.40;87.70;100601.63;5004722;28;20562;-80
2022/10/20 03:48:41;;;;;;;14.37;12.20;;;;;;;6.41;87.93;100600.69;5021430;28;20579;-81
2022/10/20 03:51:08;;;;;;;15.50;12.30;;;;;;;6.36;87.97;100594.81;5020345;28;20483;-81
2022/10/20 03:53:35;;;;;;;15.50;13.30;;;;;;;6.39;88.11;100596.44;5021402;28;20550;-81
2022/10/20 03:56:05;;;;;;;20.97;13.50;;;;;;;6.33;88.44;100596.84;5006622;28;20479;-81
2022/10/20 03:58:32;;;;;;;15.07;13.13;;;;;;;6.32;88.30;100595.13;5002118;28;20843;-81
2022/10/20 04:01:00;;;;;;;18.77;12.63;;;;;;;6.47;88.21;100603.88;5013924;28;20482;-80
2022/10/20 04:03:27;;;;;;;19.83;12.23;;;;;;;6.36;88.42;100592.16;5022920;28;20622;-81
2022/10/20 04:05:53;;;;;;;14.37;12.20;;;;;;;6.37;88.46;100593.00;5013292;28;20933;-79
2022/10/20 04:08:20;;;;;;;15.87;13.40;;;;;;;6.37;88.38;100585.91;5005901;28;20547;-81
2022/10/20 04:10:46;;;;;;;14.70;12.80;;;;;;;6.42;88.50;100582.94;5009504;28;20594;-80
2022/10/20 04:13:13;;;;;;;13.87;11.73;;;;;;;6.41;88.27;100584.75;5011373;28;20468;-80
2022/10/20 04:15:39;;;;;;;18.70;12.97;;;;;;;6.47;88.12;100580.81;5010127;28;20479;-81
2022/10/20 04:18:08;;;;;;;17.00;13.30;;;;;;;6.41;88.23;100571.47;5017294;28;20555;-81
2022/10/20 04:20:35;;;;;;;16.80;12.90;;;;;;;6.40;88.64;100571.56;5005012;28;20498;-80
2022/10/20 04:23:01;;;;;;;19.47;12.43;;;;;;;6.46;88.48;100567.63;5006008;28;20473;-82
2022/10/20 04:25:28;;;;;;;15.50;13.27;;;;;;;6.37;88.36;100569.97;5003939;28;20503;-81
2022/10/20 04:27:54;;;;;;;13.83;11.97;;;;;;;6.30;88.82;100575.81;5012038;28;20869;-81
2022/10/20 04:30:21;;;;;;;14.10;12.50;;;;;;;6.40;88.91;100576.88;5002068;28;20515;-82
2022/10/20 04:32:48;;;;;;;15.30;12.50;;;;;;;6.35;88.90;100568.38;5004335;28;20452;-81
2022/10/20 04:35:16;;;;;;;12.27;10.60;;;;;;;6.38;88.77;100566.34;5004509;28;20494;-81
2022/10/20 04:37:42;;;;;;;23.13;13.70;;;;;;;6.40;89.01;100553.81;5004799;28;20483;-82
2022/10/20 04:40:10;;;;;;;16.70;12.73;;;;;;;6.41;88.87;100552.03;5005491;28;20543;-79
2022/10/20 04:42:36;;;;;;;16.50;12.90;;;;;;;6.35;88.60;100542.69;5001220;28;20505;-80
2022/10/20 04:45:03;;;;;;;13.33;11.60;;;;;;;6.37;88.99;100531.94;5003874;28;20532;-80
2022/10/20 04:47:32;;;;;;;13.80;11.70;;;;;;;6.37;88.68;100524.84;5003397;28;20523;-80
2022/10/20 04:49:58;;;;;;;14.27;12.27;;;;;;;6.35;88.85;100521.44;5000958;28;20914;-80
2022/10/20 04:52:26;;;;;;;28.23;12.53;;;;;;;6.34;88.95;100518.91;5003006;28;20512;-80
2022/10/20 04:54:53;;;;;;;20.20;12.10;;;;;;;6.41;88.84;100517.50;5012508;28;20492;-80
2022/10/20 04:57:19;;;;;;;18.20;12.37;;;;;;;6.41;89.10;100518.34;5020308;28;21455;-79
2022/10/20 04:59:46;;;;;;;15.00;11.50;;;;;;;6.46;88.83;100512.72;5014386;28;20486;-80
2022/10/20 05:02:12;;;;;;;12.93;11.23;;;;;;;6.56;88.30;100510.25;5004150;28;20486;-80
2022/10/20 05:04:40;;;;;;;13.27;11.80;;;;;;;6.56;88.37;100499.63;5004608;28;20536;-81
2022/10/20 05:07:06;;;;;;;15.00;11.30;;;;;;;6.53;88.55;100486.59;5003895;28;20495;-80
2022/10/20 05:09:34;;;;;;;17.90;10.40;;;;;;;6.58;88.20;100495.91;5006107;28;20523;-80
2022/10/20 05:12:01;;;;;;;13.20;10.60;;;;;;;6.66;87.88;100486.53;5002551;28;20586;-79
2022/10/20 05:14:29;;;;;;;12.90;11.30;;;;;;;6.54;88.03;100481.13;5001467;28;20472;-80
2022/10/20 05:16:55;;;;;;;13.23;11.40;;;;;;;6.51;87.91;100480.50;5005586;28;20538;-78
2022/10/20 05:19:22;;;;;;;18.83;11.20;;;;;;;6.62;88.16;100479.75;5023966;28;20932;-79
2022/10/20 05:21:48;;;;;;;11.63;10.10;;;;;;;6.52;87.77;100472.44;5007130;28;20555;-78
2022/10/20 05:24:16;;;;;;;12.93;10.53;;;;;;;6.50;88.16;100474.34;5004373;28;20726;-79
2022/10/20 05:26:44;;;;;;;13.73;10.30;;;;;;;6.45;88.36;100470.34;5016679;28;20513;-78
2022/10/20 05:29:11;;;;;;;16.23;11.83;;;;;;;6.43;88.36;100472.25;5001774;28;20495;-80
2022/10/20 05:31:39;;;;;;;11.90;9.90;;;;;;;6.51;88.29;100472.53;5002465;28;20514;-80
2022/10/20 05:34:06;;;;;;;19.17;12.63;;;;;;;6.38;88.29;100467.25;5004456;28;20875;-80
2022/10/20 05:36:33;;;;;;;15.87;10.60;;;;;;;6.53;88.12;100460.03;5002054;28;20503;-79
2022/10/20 05:39:00;;;;;;;12.40;11.10;;;;;;;6.47;88.12;100455.97;5002042;28;20464;-81
2022/10/20 05:41:28;;;;;;;14.20;10.50;;;;;;;6.51;87.81;100460.13;4999757;28;20554;-80
2022/10/20 05:43:57;;;;;;;15.93;12.37;;;;;;;6.53;87.80;100457.38;5001100;28;20467;-80
2022/10/20 05:46:24;;;;;;;14.00;11.00;;;;;;;6.55;87.97;100458.09;5003429;28;20609;-79
2022/10/20 05:48:53;;;;;;;25.03;12.90;;;;;;;6.54;87.77;100462.53;5000475;28;20514;-80
2022/10/20 05:51:23;;;;;;;14.13;11.53;;;;;;;6.56;87.82;100447.38;5000189;28;20540;-79
2022/10/20 05:53:50;;;;;;;18.37;11.57;;;;;;;6.49;87.99;100443.44;5003616;28;20467;-81
2022/10/20 05:56:20;;;;;;;14.03;11.50;;;;;;;6.47;87.77;100436.53;5015778;28;20472;-80
2022/10/20 05:58:47;;;;;;;13.30;11.13;;;;;;;6.43;88.32;100429.75;5004134;28;20487;-81
2022/10/20 06:01:18;;;;;;;12.53;10.50;;;;;;;6.49;88.14;100419.56;5011464;28;20479;-81
2022/10/20 06:03:47;;;;;;;17.27;11.07;;;;;;;6.71;88.39;100415.31;5011453;28;20441;-84
2022/10/20 06:06:14;;;;;;;13.90;10.20;;;;;;;6.81;88.02;100415.53;5003100;28;20531;-84
2022/10/20 06:08:40;;;;;;;14.40;11.27;;;;;;;6.82;87.39;100419.84;5009842;28;20502;-86
2022/10/20 06:11:08;;;;;;;15.50;10.93;;;;;;;6.95;86.41;100423.31;5007216;28;20518;-86
2022/10/20 06:13:35;;;;;;;14.60;11.87;;;;;;;6.94;86.00;100410.97;5007625;28;20490;-83
2022/10/20 06:16:03;;;;;;;15.83;11.27;;;;;;;7.04;86.55;100401.34;5003768;28;20476;-84
2022/10/20 06:18:31;;;;;;;13.30;10.00;;;;;;;7.07;86.00;100405.63;5005920;28;20527;-82
2022/10/20 06:21:02;;;;;;;13.20;11.47;;;;;;;7.14;85.96;100410.34;5003030;28;20571;-83
2022/10/20 06:23:29;;;;;;;11.67;9.63;;;;;;;7.24;85.44;100407.00;5001518;28;20467;-83
2022/10/20 06:25:55;;;;;;;12.23;10.20;;;;;;;7.09;85.03;100409.84;5002572;28;20483;-82
2022/10/20 06:28:22;;;;;;;15.43;11.17;;;;;;;7.28;85.38;100403.16;5006462;28;20466;-83
2022/10/20 06:30:49;;;;;;;11.53;10.33;;;;;;;7.10;84.47;100406.22;5017408;28;20511;-81
2022/10/20 06:33:18;;;;;;;10.53;9.43;;;;;;;7.05;84.43;100412.81;5002877;28;20465;-80
2022/10/20 06:35:46;;;;;;;16.20;10.40;;;;;;;7.17;84.38;100401.31;5005875;28;20483;-80
2022/10/20 06:38:12;;;;;;;12.10;10.43;;;;;;;7.17;84.22;100401.31;5007750;28;20578;-80
2022/10/20 06:40:39;;;;;;;12.97;10.67;;;;;;;7.29;84.11;100391.53;5002887;28;20483;-81
2022/10/20 06:43:06;;;;;;;18.90;11.60;;;;;;;7.29;84.12;100384.44;5018430;28;20475;-80
2022/10/20 06:45:32;;;;;;;13.07;10.23;;;;;;;7.27;83.84;100383.66;5000900;28;20468;-81
2022/10/20 06:47:59;;;;;;;14.20;10.43;;;;;;;7.26;83.53;100376.69;4999787;28;20899;-80
2022/10/20 06:50:26;;;;;;;14.27;11.20;;;;;;;7.37;82.88;100378.50;5000331;28;20547;-80
2022/10/20 06:52:54;;;;;;;11.90;9.43;;;;;;;7.52;82.72;100387.16;5002675;28;20681;-78
2022/10/20 06:55:20;;;;;;;14.27;10.50;;;;;;;7.64;82.35;100388.03;5001444;28;20484;-81
2022/10/20 06:57:47;;;;;;;14.97;10.27;;;;;;;7.70;82.10;100379.56;5001171;28;20918;-80
2022/10/20 07:00:14;;;;;;;14.13;9.90;;;;;;;7.58;82.14;100385.81;4999742;28;20460;-81
2022/10/20 07:02:41;;;;;;;13.87;10.43;;;;;;;7.79;81.19;100375.31;4999487;28;20467;-80
2022/10/20 07:05:08;;;;;;;13.00;10.57;;;;;;;7.92;80.69;100381.38;5003857;28;20484;-81
2022/10/20 07:07:35;;;;;;;11.67;9.73;;;;;;;8.09;80.18;100380.06;5010435;28;20575;-81
2022/10/20 07:10:03;;;;;;;11.20;9.33;;;;;;;7.98;80.35;100382.72;5006760;28;20583;-80
2022/10/20 07:12:29;;;;;;;10.90;9.50;;;;;;;8.26;79.79;100374.25;5004107;28;20515;-81
2022/10/20 07:14:56;;;;;;;13.30;10.50;;;;;;;8.20;78.97;100372.06;5019271;28;20510;-82
2022/10/20 07:17:23;;;;;;;14.10;10.40;;;;;;;8.42;78.92;100373.00;5003856;28;20511;-81
2022/10/20 07:19:49;;;;;;;12.57;9.50;;;;;;;8.67;78.16;100382.56;5001328;28;20596;-81
2022/10/20 07:22:16;;;;;;;11.83;9.17;;;;;;;8.79;77.35;100376.22;4997388;28;20558;-81
2022/10/20 07:24:42;;;;;;;19.00;10.93;;;;;;;8.64;77.02;100377.47;5000753;28;20543;-82
2022/10/20 07:27:10;;;;;;;11.33;9.47;;;;;;;9.16;76.02;100367.81;5000510;28;20503;-82
2022/10/20 07:29:37;;;;;;;9.47;8.17;;;;;;;9.37;74.79;100370.53;5010791;28;20463;-81
2022/10/20 07:32:04;;;;;;;14.93;8.77;;;;;;;9.89;72.86;100370.53;5006015;28;20558;-81
2022/10/20 07:34:31;;;;;;;8.73;7.87;;;;;;;10.33;70.27;100375.66;5013475;28;20447;-80
2022/10/20 07:36:58;;;;;;;9.90;7.70;;;;;;;9.93;71.45;100374.63;5017663;28;20498;-82
2022/10/20 07:39:25;;;;;;;8.90;8.00;;;;;;;9.80;72.46;100366.00;4994934;28;21277;-82
2022/10/20 07:41:52;;;;;;;9.80;7.80;;;;;;;9.41;73.93;100358.59;5004438;28;20514;-81
2022/10/20 07:44:20;;;;;;;10.57;7.90;;;;;;;9.42;74.22;100372.78;5004906;28;20882;-79
2022/10/20 07:46:47;;;;;;;12.00;8.43;;;;;;;9.30;75.04;100368.50;5004850;28;20475;-80
2022/10/20 07:49:13;;;;;;;10.03;8.57;;;;;;;9.35;75.69;100368.94;5005174;28;20973;-80
2022/10/20 07:51:40;;;;;;;10.80;8.53;;;;;;;9.13;76.28;100362.75;5002977;28;20615;-81
2022/10/20 07:54:10;;;;;;;10.50;9.10;;;;;;;9.21;75.87;100365.63;5005044;28;20463;-81
2022/10/20 07:56:39;;;;;;;10.17;8.73;;;;;;;9.27;75.56;100374.06;5005021;28;20583;-80
2022/10/20 07:59:05;;;;;;;10.80;8.57;;;;;;;9.57;75.16;100352.81;5004667;28;20475;-80
2022/10/20 08:01:34;;;;;;;9.03;8.10;;;;;;;9.58;74.59;100362.50;5004542;28;20811;-81
2022/10/20 08:04:00;;;;;;;10.77;8.90;;;;;;;9.82;74.26;100355.19;5005538;28;20509;-81
2022/10/20 08:06:27;;;;;;;12.47;8.60;;;;;;;9.73;74.97;100351.47;5004464;28;20490;-81
2022/10/20 08:08:54;;;;;;;10.57;8.90;;;;;;;9.71;74.81;100346.28;5004700;28;20515;-81
2022/10/20 08:11:25;;;;;;;10.30;8.40;;;;;;;9.64;74.96;100349.63;5006554;28;20523;-80
2022/10/20 08:13:52;;;;;;;9.73;8.10;;;;;;;9.81;74.25;100351.66;5014175;28;20436;-81
2022/10/20 08:16:19;;;;;;;9.50;8.40;;;;;;;9.58;75.02;100353.63;5015645;28;21007;-80
2022/10/20 08:18:47;;;;;;;10.77;9.30;;;;;;;9.47;75.60;100338.53;5003625;28;20487;-81
2022/10/20 08:21:15;;;;;;;12.83;9.43;;;;;;;9.70;75.49;100346.41;5002474;28;20480;-81
2022/10/20 08:23:44;;;;;;;9.50;8.23;;;;;;;9.90;75.12;100340.19;5002975;28;20479;-80
2022/10/20 08:26:11;;;;;;;9.67;8.70;;;;;;;9.98;74.52;100339.50;5004047;28;20583;-79
2022/10/20 08:28:38;;;;;;;11.00;8.73;;;;;;;9.95;74.51;100340.63;5003390;28;20546;-80
2022/10/20 08:31:06;;;;;;;10.77;8.43;;;;;;;10.27;74.08;100328.91;5003668;28;20491;-80
2022/10/20 08:33:33;;;;;;;10.00;8.20;;;;;;;10.18;73.82;100327.91;5003933;28;20448;-81
2022/10/20 08:36:06;;;;;;;10.87;9.20;;;;;;;10.32;73.99;100321.34;5001672;28;20480;-81
2022/10/20 08:38:32;;;;;;;11.03;9.23;;;;;;;10.47;73.60;100327.16;5003658;28;20456;-80
2022/10/20 08:41:00;;;;;;;13.53;9.50;;;;;;;10.62;72.90;100327.59;5004171;28;20510;-80
2022/10/20 08:43:28;;;;;;;10.70;9.60;;;;;;;10.63;72.97;100315.94;5004200;28;20455;-79
2022/10/20 08:45:55;;;;;;;10.70;8.80;;;;;;;11.26;71.61;100318.16;5004092;28;20526;-80
2022/10/20 08:48:24;;;;;;;11.03;9.10;;;;;;;11.51;70.15;100315.88;5005071;28;20443;-80
2022/10/20 08:50:52;;;;;;;10.17;8.33;;;;;;;12.03;69.01;100321.63;5002506;28;22049;-78
2022/10/20 08:53:22;;;;;;;9.50;7.83;;;;;;;13.21;64.31;100323.47;5003678;28;20551;-79
2022/10/20 08:55:49;;;;;;;9.23;7.30;;;;;;;13.56;62.01;100312.66;5004010;28;20981;-80
2022/10/20 08:58:17;;;;;;;10.53;7.07;;;;;;;13.77;61.62;100310.63;5003406;28;20460;-77
2022/10/20 09:00:45;;;;;;;8.57;7.67;;;;;;;13.25;63.26;100306.06;5003965;28;20487;-78
2022/10/20 09:03:16;;;;;;;9.37;7.57;;;;;;;13.31;63.53;100286.63;5004559;28;20473;-79
2022/10/20 09:05:45;;;;;;;7.43;6.73;;;;;;;13.14;64.87;100286.50;5009270;28;20479;-80
2022/10/20 09:08:12;;;;;;;8.67;7.40;;;;;;;13.28;63.69;100277.06;5023004;28;20538;-80
2022/10/20 09:10:42;;;;;;;9.43;7.23;;;;;;;13.10;64.03;100277.06;5020562;28;20569;-81
2022/10/20 09:13:14;;;;;;;8.10;7.10;;;;;;;13.49;63.31;100286.63;5004149;28;20453;-80
2022/10/20 09:15:41;;;;;;;9.33;7.90;;;;;;;13.60;63.25;100274.75;5009752;28;20506;-81
2022/10/20 09:18:12;;;;;;;14.33;7.70;;;;;;;13.01;64.50;100272.66;5012820;28;20503;-81
2022/10/20 09:20:43;;;;;;;10.87;9.77;;;;;;;13.11;64.40;100264.50;5002365;28;21053;-81
2022/10/20 09:23:12;;;;;;;9.80;7.60;;;;;;;13.32;64.65;100272.25;5003260;28;20463;-81
2022/10/20 09:25:40;;;;;;;13.20;7.77;;;;;;;13.67;63.22;100273.94;5003115;28;20518;-79
2022/10/20 09:28:17;;;;;;;10.70;7.63;;;;;;;13.48;63.20;100264.25;5002722;28;20554;-81
2022/10/20 09:30:44;;;;;;;8.87;7.30;;;;;;;14.02;62.79;100269.38;5005399;28;20559;-81
2022/10/20 09:33:21;;;;;;;10.20;8.13;;;;;;;14.22;61.17;100261.91;5006532;28;20964;-80
2022/10/20 09:35:48;;;;;;;7.90;7.13;;;;;;;14.08;61.78;100262.53;5011073;28;20802;-81
2022/10/20 09:38:18;;;;;;;8.70;7.60;;;;;;;14.08;62.53;100255.31;5014008;28;20554;-81
2022/10/20 09:40:55;;;;;;;8.33;7.43;;;;;;;14.59;60.93;100262.50;5017466;28;20484;-81
2022/10/20 09:43:21;;;;;;;9.30;7.77;;;;;;;15.28;58.35;100251.38;5016249;28;20483;-82
2022/10/20 09:45:53;;;;;;;8.20;7.40;;;;;;;15.45;57.78;100239.56;5016983;28;20474;-82
2022/10/20 09:48:22;;;;;;;7.50;6.77;;;;;;;15.71;57.49;100236.59;5022636;28;20555;-83
2022/10/20 09:50:51;;;;;;;9.57;7.27;;;;;;;16.44;54.72;100217.50;5007156;28;20909;-82
2022/10/20 09:53:20;;;;;;;7.57;6.83;;;;;;;17.35;52.77;100212.19;5012687;28;20483;-82
2022/10/20 09:55:49;;;;;;;8.57;6.80;;;;;;;17.53;51.48;100209.09;5018540;28;20486;-83
2022/10/20 09:58:21;;;;;;;7.00;6.33;;;;;;;16.52;53.32;100210.19;5009511;28;20480;-82
2022/10/20 10:00:56;;;;;;;6.70;6.10;;;;;;;16.29;54.95;100228.25;5009395;28;20551;-82
2022/10/20 10:03:23;;;;;;;9.90;6.60;;;;;;;16.06;55.47;100237.16;5010847;28;20558;-82
2022/10/20 10:05:51;;;;;;;7.80;6.73;;;;;;;15.93;56.05;100228.78;5019044;28;20895;-82
2022/10/20 10:08:19;;;;;;;7.70;6.90;;;;;;;16.33;54.90;100229.56;5020176;28;20486;-81
2022/10/20 10:10:59;;;;;;;7.90;6.93;;;;;;;16.91;53.44;100222.75;5016668;28;20566;-82
2022/10/20 10:13:27;;;;;;;7.33;6.57;;;;;;;16.71;54.02;100210.72;5020179;28;20428;-82
2022/10/20 10:16:06;;;;;;;7.30;6.60;;;;;;;17.66;51.46;100231.75;5009647;28;20499;-82
2022/10/20 10:18:33;;;;;;;9.57;6.57;;;;;;;18.08;50.22;100231.25;5007487;28;20483;-82
2022/10/20 10:21:03;;;;;;;6.47;5.87;;;;;;;18.60;49.04;100220.13;5017870;28;20500;-83
2022/10/20 10:23:30;;;;;;;7.80;7.00;;;;;;;18.12;48.94;100222.56;5020158;28;20530;-83
2022/10/20 10:25:58;;;;;;;8.27;6.10;;;;;;;17.27;51.13;100207.69;5006357;28;20604;-83
2022/10/20 10:28:34;;;;;;;8.30;6.17;;;;;;;16.76;52.57;100208.31;5001638;28;21062;-82
2022/10/20 10:31:20;;;;;;;8.70;6.07;;;;;;;17.26;52.47;100214.13;5003555;28;20519;-82
2022/10/20 10:33:48;;;;;;;10.10;6.80;;;;;;;17.81;50.02;100220.94;5003888;28;20467;-82
2022/10/20 10:36:22;;;;;;;7.63;6.70;;;;;;;18.88;47.73;100210.41;5000996;28;20514;-82
2022/10/20 10:38:49;;;;;;;8.17;6.10;;;;;;;19.10;46.72;100203.09;5000808;28;20965;-82
2022/10/20 10:41:30;;;;;;;7.87;5.80;;;;;;;20.15;44.42;100198.41;5002053;28;20481;-81
2022/10/20 10:44:00;;;;;;;6.80;6.20;;;;;;;18.74;47.79;100193.19;5003368;28;20533;-83
2022/10/20 10:46:36;;;;;;;7.00;5.90;;;;;;;18.02;49.82;100192.28;5014442;28;20881;-82
2022/10/20 10:49:37;;;;;;;8.03;6.33;;;;;;;19.22;47.88;100187.09;5018834;28;20463;-82
2022/10/20 10:52:13;;;;;;;5.80;5.30;;;;;;;18.23;49.03;100175.22;5015088;28;20504;-82
2022/10/20 10:54:52;;;;;;;6.70;5.80;;;;;;;17.29;52.17;100176.78;5007410;28;20531;-82
2022/10/20 10:57:27;;;;;;;8.10;6.10;;;;;;;16.32;55.23;100161.28;5005528;28;20527;-81
2022/10/20 10:59:53;;;;;;;7.10;5.90;;;;;;;15.64;57.68;100157.47;5008162;28;20461;-80
2022/10/20 11:02:33;;;;;;;7.57;6.20;;;;;;;15.42;58.96;100167.16;5004450;28;20519;-83
2022/10/20 11:05:32;;;;;;;7.30;6.50;;;;;;;15.52;58.91;100159.72;5001210;28;20482;-82
2022/10/20 11:08:08;;;;;;;13.40;7.40;;;;;;;15.49;60.08;100165.44;5000821;28;20981;-83
2022/10/20 11:10:42;;;;;;;8.27;6.00;;;;;;;15.47;59.65;100158.53;5000855;28;20490;-83
2022/10/20 11:13:19;;;;;;;8.60;6.03;;;;;;;15.68;60.21;100149.88;5000389;28;21043;-83
2022/10/20 11:15:55;;;;;;;6.73;5.97;;;;;;;15.32;60.47;100150.34;5001056;28;20507;-82
2022/10/20 11:18:36;;;;;;;8.33;6.73;;;;;;;15.51;60.49;100146.41;5000228;28;20833;-83
2022/10/20 11:21:19;;;;;;;9.80;6.40;;;;;;;15.82;59.69;100151.84;5009705;28;20515;-83
2022/10/20 11:24:04;;;;;;;6.50;5.83;;;;;;;16.27;58.91;100149.34;5001025;28;20455;-83
2022/10/20 11:26:33;;;;;;;8.60;6.67;;;;;;;16.58;58.15;100154.66;5000943;28;20511;-83
2022/10/20 11:29:04;;;;;;;7.03;5.57;;;;;;;17.86;54.16;100150.91;5001443;28;20492;-82